sensor_id;sensor_type;location;lat;lon;timestamp;P1;durP1;ratioP1;P2;durP2;ratioP2
14933;SDS011;7560;51.364;12.384;2023-03-07T00:01:06;24.15;;;11.32;;
14933;SDS011;7560;51.364;12.384;2023-03-07T00:06:08;24.77;;;10.90;;
14933;SDS011;7560;51.364;12.384;2023-03-07T00:11:11;21.08;;;10.30;;
14933;SDS011;7560;51.364;12.384;2023-03-07T00:16:14;22.58;;;10.82;;
14933;SDS011;7560;51.364;12.384;2023-03-07T00:21:19;23.02;;;11.25;;
14933;SDS011;7560;51.364;12.384;2023-03-07T00:26:23;21.77;;;10.88;;
14933;SDS011;7560;51.364;12.384;2023-03-07T00:31:25;22.85;;;10.98;;
14933;SDS011;7560;51.364;12.384;2023-03-07T00:36:27;22.80;;;11.27;;
14933;SDS011;7560;51.364;12.384;2023-03-07T00:41:29;21.30;;;10.68;;
14933;SDS011;7560;51.364;12.384;2023-03-07T00:46:30;20.05;;;10.50;;
14933;SDS011;7560;51.364;12.384;2023-03-07T00:51:32;22.98;;;10.60;;
14933;SDS011;7560;51.364;12.384;2023-03-07T00:56:34;19.67;;;10.25;;
14933;SDS011;7560;51.364;12.384;2023-03-07T01:01:36;20.17;;;10.88;;
14933;SDS011;7560;51.364;12.384;2023-03-07T01:06:38;21.65;;;10.07;;
14933;SDS011;7560;51.364;12.384;2023-03-07T01:11:39;20.75;;;10.18;;
14933;SDS011;7560;51.364;12.384;2023-03-07T01:16:42;26.73;;;11.68;;
14933;SDS011;7560;51.364;12.384;2023-03-07T01:21:44;22.08;;;11.10;;
14933;SDS011;7560;51.364;12.384;2023-03-07T01:26:45;24.50;;;11.45;;
14933;SDS011;7560;51.364;12.384;2023-03-07T01:31:48;22.48;;;10.85;;
14933;SDS011;7560;51.364;12.384;2023-03-07T01:36:50;24.45;;;11.85;;
14933;SDS011;7560;51.364;12.384;2023-03-07T01:41:52;20.20;;;11.18;;
14933;SDS011;7560;51.364;12.384;2023-03-07T01:52:06;22.67;;;11.30;;
14933;SDS011;7560;51.364;12.384;2023-03-07T01:57:14;21.42;;;10.95;;
14933;SDS011;7560;51.364;12.384;2023-03-07T02:02:18;21.80;;;11.60;;
14933;SDS011;7560;51.364;12.384;2023-03-07T02:07:24;24.15;;;11.85;;
14933;SDS011;7560;51.364;12.384;2023-03-07T02:12:28;23.77;;;11.90;;
14933;SDS011;7560;51.364;12.384;2023-03-07T02:17:30;24.30;;;12.10;;
14933;SDS011;7560;51.364;12.384;2023-03-07T02:22:32;22.38;;;12.30;;
14933;SDS011;7560;51.364;12.384;2023-03-07T02:27:34;24.55;;;12.30;;
14933;SDS011;7560;51.364;12.384;2023-03-07T02:32:39;25.70;;;12.68;;
14933;SDS011;7560;51.364;12.384;2023-03-07T02:37:41;24.05;;;12.80;;
14933;SDS011;7560;51.364;12.384;2023-03-07T02:42:46;25.25;;;12.88;;
14933;SDS011;7560;51.364;12.384;2023-03-07T02:47:51;23.95;;;12.32;;
14933;SDS011;7560;51.364;12.384;2023-03-07T02:52:52;27.30;;;13.48;;
14933;SDS011;7560;51.364;12.384;2023-03-07T02:57:54;23.35;;;12.50;;
14933;SDS011;7560;51.364;12.384;2023-03-07T03:02:56;24.10;;;12.52;;
14933;SDS011;7560;51.364;12.384;2023-03-07T03:07:58;22.45;;;11.73;;
14933;SDS011;7560;51.364;12.384;2023-03-07T03:12:59;25.40;;;12.77;;
14933;SDS011;7560;51.364;12.384;2023-03-07T03:18:01;21.35;;;11.68;;
14933;SDS011;7560;51.364;12.384;2023-03-07T03:23:03;22.92;;;11.63;;
14933;SDS011;7560;51.364;12.384;2023-03-07T03:28:05;23.75;;;12.13;;
14933;SDS011;7560;51.364;12.384;2023-03-07T03:33:07;22.63;;;11.90;;
14933;SDS011;7560;51.364;12.384;2023-03-07T03:38:08;19.98;;;11.00;;
14933;SDS011;7560;51.364;12.384;2023-03-07T03:43:10;19.98;;;11.07;;
14933;SDS011;7560;51.364;12.384;2023-03-07T03:48:12;22.05;;;11.15;;
14933;SDS011;7560;51.364;12.384;2023-03-07T03:53:13;22.73;;;11.65;;
14933;SDS011;7560;51.364;12.384;2023-03-07T03:58:15;22.10;;;10.55;;
14933;SDS011;7560;51.364;12.384;2023-03-07T04:03:17;19.63;;;11.50;;
14933;SDS011;7560;51.364;12.384;2023-03-07T04:08:19;19.02;;;10.13;;
14933;SDS011;7560;51.364;12.384;2023-03-07T04:13:22;16.52;;;9.40;;
14933;SDS011;7560;51.364;12.384;2023-03-07T04:18:24;21.27;;;10.07;;
14933;SDS011;7560;51.364;12.384;2023-03-07T04:23:26;19.40;;;9.27;;
14933;SDS011;7560;51.364;12.384;2023-03-07T04:28:30;19.45;;;10.35;;
14933;SDS011;7560;51.364;12.384;2023-03-07T04:33:45;18.48;;;10.15;;
14933;SDS011;7560;51.364;12.384;2023-03-07T04:38:48;17.20;;;9.48;;
14933;SDS011;7560;51.364;12.384;2023-03-07T04:43:50;17.20;;;9.65;;
14933;SDS011;7560;51.364;12.384;2023-03-07T04:48:52;18.02;;;9.38;;
14933;SDS011;7560;51.364;12.384;2023-03-07T04:53:54;23.27;;;11.95;;
14933;SDS011;7560;51.364;12.384;2023-03-07T04:58:56;18.90;;;10.02;;
14933;SDS011;7560;51.364;12.384;2023-03-07T05:03:57;18.67;;;8.95;;
14933;SDS011;7560;51.364;12.384;2023-03-07T05:08:59;15.43;;;8.38;;
14933;SDS011;7560;51.364;12.384;2023-03-07T05:14:01;15.00;;;8.82;;
14933;SDS011;7560;51.364;12.384;2023-03-07T05:19:03;20.75;;;10.05;;
14933;SDS011;7560;51.364;12.384;2023-03-07T05:24:06;15.50;;;8.32;;
14933;SDS011;7560;51.364;12.384;2023-03-07T05:29:08;16.30;;;8.00;;
14933;SDS011;7560;51.364;12.384;2023-03-07T05:34:10;19.20;;;9.57;;
14933;SDS011;7560;51.364;12.384;2023-03-07T05:39:12;15.50;;;7.78;;
14933;SDS011;7560;51.364;12.384;2023-03-07T05:44:15;12.27;;;7.07;;
14933;SDS011;7560;51.364;12.384;2023-03-07T05:49:17;17.02;;;8.70;;
14933;SDS011;7560;51.364;12.384;2023-03-07T05:54:19;14.90;;;7.57;;
14933;SDS011;7560;51.364;12.384;2023-03-07T05:59:21;14.13;;;8.02;;
14933;SDS011;7560;51.364;12.384;2023-03-07T06:04:23;11.77;;;6.95;;
14933;SDS011;7560;51.364;12.384;2023-03-07T06:09:25;10.30;;;6.05;;
14933;SDS011;7560;51.364;12.384;2023-03-07T06:14:29;10.13;;;6.00;;
14933;SDS011;7560;51.364;12.384;2023-03-07T06:19:32;12.15;;;6.38;;
14933;SDS011;7560;51.364;12.384;2023-03-07T06:24:34;11.70;;;5.95;;
14933;SDS011;7560;51.364;12.384;2023-03-07T06:29:36;11.75;;;6.13;;
14933;SDS011;7560;51.364;12.384;2023-03-07T06:34:38;9.20;;;5.90;;
14933;SDS011;7560;51.364;12.384;2023-03-07T06:39:40;10.00;;;5.88;;
14933;SDS011;7560;51.364;12.384;2023-03-07T06:44:42;9.05;;;5.10;;
14933;SDS011;7560;51.364;12.384;2023-03-07T06:49:44;10.32;;;5.68;;
14933;SDS011;7560;51.364;12.384;2023-03-07T06:54:45;10.30;;;5.32;;
14933;SDS011;7560;51.364;12.384;2023-03-07T06:59:47;8.48;;;5.35;;
14933;SDS011;7560;51.364;12.384;2023-03-07T07:04:49;10.40;;;5.47;;
14933;SDS011;7560;51.364;12.384;2023-03-07T07:09:51;9.23;;;5.25;;
14933;SDS011;7560;51.364;12.384;2023-03-07T07:14:53;7.47;;;4.53;;
14933;SDS011;7560;51.364;12.384;2023-03-07T07:19:54;7.82;;;4.82;;
14933;SDS011;7560;51.364;12.384;2023-03-07T07:24:56;8.90;;;5.43;;
14933;SDS011;7560;51.364;12.384;2023-03-07T07:29:58;9.13;;;5.32;;
14933;SDS011;7560;51.364;12.384;2023-03-07T07:35:00;8.18;;;5.07;;
14933;SDS011;7560;51.364;12.384;2023-03-07T07:40:02;9.23;;;5.05;;
14933;SDS011;7560;51.364;12.384;2023-03-07T07:45:05;7.18;;;5.05;;
14933;SDS011;7560;51.364;12.384;2023-03-07T07:50:07;8.13;;;4.80;;
14933;SDS011;7560;51.364;12.384;2023-03-07T07:55:09;7.78;;;4.88;;
14933;SDS011;7560;51.364;12.384;2023-03-07T08:00:13;9.55;;;4.65;;
14933;SDS011;7560;51.364;12.384;2023-03-07T08:05:21;6.80;;;4.40;;
14933;SDS011;7560;51.364;12.384;2023-03-07T08:10:23;6.25;;;4.13;;
14933;SDS011;7560;51.364;12.384;2023-03-07T08:15:25;7.18;;;3.70;;
14933;SDS011;7560;51.364;12.384;2023-03-07T08:20:26;7.90;;;4.45;;
14933;SDS011;7560;51.364;12.384;2023-03-07T08:25:28;6.30;;;3.95;;
14933;SDS011;7560;51.364;12.384;2023-03-07T08:30:31;6.38;;;4.05;;
14933;SDS011;7560;51.364;12.384;2023-03-07T08:35:35;7.72;;;4.15;;
14933;SDS011;7560;51.364;12.384;2023-03-07T08:40:37;5.18;;;3.58;;
14933;SDS011;7560;51.364;12.384;2023-03-07T08:45:39;6.25;;;4.13;;
14933;SDS011;7560;51.364;12.384;2023-03-07T08:50:41;6.90;;;4.10;;
14933;SDS011;7560;51.364;12.384;2023-03-07T08:55:43;6.40;;;3.83;;
14933;SDS011;7560;51.364;12.384;2023-03-07T09:00:45;6.45;;;4.18;;
14933;SDS011;7560;51.364;12.384;2023-03-07T09:05:46;5.75;;;4.15;;
14933;SDS011;7560;51.364;12.384;2023-03-07T09:10:48;5.22;;;4.15;;
14933;SDS011;7560;51.364;12.384;2023-03-07T09:15:50;6.85;;;4.07;;
14933;SDS011;7560;51.364;12.384;2023-03-07T09:20:52;6.45;;;4.50;;
14933;SDS011;7560;51.364;12.384;2023-03-07T09:25:57;6.57;;;3.97;;
14933;SDS011;7560;51.364;12.384;2023-03-07T09:31:05;8.45;;;5.38;;
14933;SDS011;7560;51.364;12.384;2023-03-07T09:36:11;7.68;;;4.82;;
14933;SDS011;7560;51.364;12.384;2023-03-07T09:41:17;7.00;;;4.75;;
14933;SDS011;7560;51.364;12.384;2023-03-07T09:46:30;8.20;;;5.55;;
14933;SDS011;7560;51.364;12.384;2023-03-07T09:51:41;7.43;;;4.97;;
14933;SDS011;7560;51.364;12.384;2023-03-07T09:56:50;7.40;;;5.43;;
14933;SDS011;7560;51.364;12.384;2023-03-07T10:07:33;8.32;;;5.00;;
14933;SDS011;7560;51.364;12.384;2023-03-07T10:12:42;8.68;;;5.40;;
14933;SDS011;7560;51.364;12.384;2023-03-07T10:18:14;7.88;;;5.40;;
14933;SDS011;7560;51.364;12.384;2023-03-07T10:23:26;8.50;;;5.43;;
14933;SDS011;7560;51.364;12.384;2023-03-07T10:28:39;8.68;;;5.97;;
14933;SDS011;7560;51.364;12.384;2023-03-07T10:33:47;10.32;;;5.15;;
14933;SDS011;7560;51.364;12.384;2023-03-07T10:44:03;8.23;;;5.50;;
14933;SDS011;7560;51.364;12.384;2023-03-07T10:54:12;8.48;;;5.85;;
14933;SDS011;7560;51.364;12.384;2023-03-07T10:59:16;8.85;;;5.63;;
14933;SDS011;7560;51.364;12.384;2023-03-07T11:04:27;9.27;;;4.90;;
14933;SDS011;7560;51.364;12.384;2023-03-07T11:09:31;10.00;;;5.80;;
14933;SDS011;7560;51.364;12.384;2023-03-07T11:14:51;9.88;;;5.78;;
14933;SDS011;7560;51.364;12.384;2023-03-07T11:19:55;9.25;;;5.72;;
14933;SDS011;7560;51.364;12.384;2023-03-07T11:25:07;8.65;;;5.72;;
14933;SDS011;7560;51.364;12.384;2023-03-07T11:35:20;9.05;;;5.60;;
14933;SDS011;7560;51.364;12.384;2023-03-07T11:40:25;9.98;;;5.63;;
14933;SDS011;7560;51.364;12.384;2023-03-07T11:45:49;8.23;;;4.93;;
14933;SDS011;7560;51.364;12.384;2023-03-07T11:50:54;8.35;;;5.35;;
14933;SDS011;7560;51.364;12.384;2023-03-07T12:06:34;9.05;;;6.07;;
14933;SDS011;7560;51.364;12.384;2023-03-07T12:27:42;8.85;;;4.93;;
14933;SDS011;7560;51.364;12.384;2023-03-07T12:33:08;7.13;;;4.93;;
14933;SDS011;7560;51.364;12.384;2023-03-07T12:38:40;7.68;;;4.90;;
14933;SDS011;7560;51.364;12.384;2023-03-07T12:43:49;6.60;;;4.93;;
14933;SDS011;7560;51.364;12.384;2023-03-07T12:49:18;9.38;;;5.07;;
14933;SDS011;7560;51.364;12.384;2023-03-07T12:54:54;6.55;;;4.47;;
14933;SDS011;7560;51.364;12.384;2023-03-07T13:00:04;9.23;;;5.32;;
14933;SDS011;7560;51.364;12.384;2023-03-07T13:05:16;7.50;;;4.78;;
14933;SDS011;7560;51.364;12.384;2023-03-07T13:10:21;7.18;;;4.50;;
14933;SDS011;7560;51.364;12.384;2023-03-07T13:25:42;7.18;;;4.82;;
14933;SDS011;7560;51.364;12.384;2023-03-07T13:41:48;6.90;;;3.97;;
14933;SDS011;7560;51.364;12.384;2023-03-07T13:46:51;7.60;;;4.45;;
14933;SDS011;7560;51.364;12.384;2023-03-07T13:57:38;8.30;;;5.35;;
14933;SDS011;7560;51.364;12.384;2023-03-07T14:02:42;8.13;;;4.85;;
14933;SDS011;7560;51.364;12.384;2023-03-07T14:07:45;7.75;;;4.70;;
14933;SDS011;7560;51.364;12.384;2023-03-07T14:18:46;7.63;;;5.00;;
14933;SDS011;7560;51.364;12.384;2023-03-07T14:23:47;6.95;;;4.75;;
14933;SDS011;7560;51.364;12.384;2023-03-07T14:29:19;7.88;;;5.25;;
14933;SDS011;7560;51.364;12.384;2023-03-07T14:39:26;2.10;;;1.55;;
14933;SDS011;7560;51.364;12.384;2023-03-07T14:50:15;1.77;;;1.40;;
14933;SDS011;7560;51.364;12.384;2023-03-07T14:55:22;2.00;;;1.13;;
14933;SDS011;7560;51.364;12.384;2023-03-07T15:00:27;1.90;;;1.17;;
14933;SDS011;7560;51.364;12.384;2023-03-07T15:05:31;3.15;;;1.98;;
14933;SDS011;7560;51.364;12.384;2023-03-07T15:10:39;2.30;;;1.60;;
14933;SDS011;7560;51.364;12.384;2023-03-07T15:15:44;3.97;;;2.55;;
14933;SDS011;7560;51.364;12.384;2023-03-07T15:20:49;2.85;;;2.00;;
14933;SDS011;7560;51.364;12.384;2023-03-07T15:25:53;2.80;;;2.00;;
14933;SDS011;7560;51.364;12.384;2023-03-07T15:31:00;3.90;;;2.05;;
14933;SDS011;7560;51.364;12.384;2023-03-07T15:41:27;3.50;;;1.73;;
14933;SDS011;7560;51.364;12.384;2023-03-07T15:46:33;2.15;;;1.65;;
14933;SDS011;7560;51.364;12.384;2023-03-07T15:51:41;2.13;;;1.42;;
14933;SDS011;7560;51.364;12.384;2023-03-07T15:56:43;2.65;;;1.73;;
14933;SDS011;7560;51.364;12.384;2023-03-07T16:01:46;3.30;;;2.03;;
14933;SDS011;7560;51.364;12.384;2023-03-07T16:06:48;2.53;;;1.83;;
14933;SDS011;7560;51.364;12.384;2023-03-07T16:11:49;4.40;;;2.17;;
14933;SDS011;7560;51.364;12.384;2023-03-07T16:16:55;3.90;;;2.70;;
14933;SDS011;7560;51.364;12.384;2023-03-07T16:22:15;3.25;;;2.55;;
14933;SDS011;7560;51.364;12.384;2023-03-07T16:27:20;3.65;;;2.67;;
14933;SDS011;7560;51.364;12.384;2023-03-07T16:32:23;3.05;;;2.30;;
14933;SDS011;7560;51.364;12.384;2023-03-07T16:37:24;2.90;;;2.50;;
14933;SDS011;7560;51.364;12.384;2023-03-07T16:42:28;4.03;;;2.75;;
14933;SDS011;7560;51.364;12.384;2023-03-07T16:47:30;2.65;;;2.13;;
14933;SDS011;7560;51.364;12.384;2023-03-07T16:52:32;4.82;;;2.42;;
14933;SDS011;7560;51.364;12.384;2023-03-07T16:57:33;8.90;;;5.05;;
14933;SDS011;7560;51.364;12.384;2023-03-07T17:02:35;8.60;;;6.00;;
14933;SDS011;7560;51.364;12.384;2023-03-07T17:07:37;4.70;;;3.05;;
14933;SDS011;7560;51.364;12.384;2023-03-07T17:12:40;4.85;;;3.58;;
14933;SDS011;7560;51.364;12.384;2023-03-07T17:17:43;4.43;;;3.13;;
14933;SDS011;7560;51.364;12.384;2023-03-07T17:22:45;5.25;;;3.78;;
14933;SDS011;7560;51.364;12.384;2023-03-07T17:27:48;6.50;;;4.55;;
14933;SDS011;7560;51.364;12.384;2023-03-07T17:33:02;6.78;;;4.85;;
14933;SDS011;7560;51.364;12.384;2023-03-07T17:38:05;7.50;;;5.60;;
14933;SDS011;7560;51.364;12.384;2023-03-07T17:43:07;8.00;;;4.60;;
14933;SDS011;7560;51.364;12.384;2023-03-07T17:48:08;7.65;;;5.30;;
14933;SDS011;7560;51.364;12.384;2023-03-07T17:53:10;7.50;;;4.68;;
14933;SDS011;7560;51.364;12.384;2023-03-07T17:58:12;9.75;;;5.13;;
14933;SDS011;7560;51.364;12.384;2023-03-07T18:03:14;7.28;;;4.68;;
14933;SDS011;7560;51.364;12.384;2023-03-07T18:08:16;7.05;;;5.28;;
14933;SDS011;7560;51.364;12.384;2023-03-07T18:13:17;7.55;;;4.85;;
14933;SDS011;7560;51.364;12.384;2023-03-07T18:18:21;8.60;;;5.38;;
14933;SDS011;7560;51.364;12.384;2023-03-07T18:23:23;7.95;;;5.65;;
14933;SDS011;7560;51.364;12.384;2023-03-07T18:28:25;10.88;;;6.03;;
14933;SDS011;7560;51.364;12.384;2023-03-07T18:33:28;8.82;;;5.68;;
14933;SDS011;7560;51.364;12.384;2023-03-07T18:38:31;9.43;;;6.10;;
14933;SDS011;7560;51.364;12.384;2023-03-07T18:43:34;11.07;;;6.95;;
14933;SDS011;7560;51.364;12.384;2023-03-07T18:48:36;13.40;;;8.07;;
14933;SDS011;7560;51.364;12.384;2023-03-07T18:53:38;14.77;;;8.40;;
14933;SDS011;7560;51.364;12.384;2023-03-07T18:58:41;14.73;;;8.32;;
14933;SDS011;7560;51.364;12.384;2023-03-07T19:03:45;14.85;;;8.50;;
14933;SDS011;7560;51.364;12.384;2023-03-07T19:08:48;14.65;;;8.77;;
14933;SDS011;7560;51.364;12.384;2023-03-07T19:13:50;12.55;;;7.85;;
14933;SDS011;7560;51.364;12.384;2023-03-07T19:18:52;13.00;;;7.75;;
14933;SDS011;7560;51.364;12.384;2023-03-07T19:23:55;13.38;;;8.45;;
14933;SDS011;7560;51.364;12.384;2023-03-07T19:28:59;13.15;;;7.93;;
14933;SDS011;7560;51.364;12.384;2023-03-07T19:34:01;12.57;;;7.75;;
14933;SDS011;7560;51.364;12.384;2023-03-07T19:39:05;13.80;;;8.23;;
14933;SDS011;7560;51.364;12.384;2023-03-07T19:44:09;15.27;;;8.68;;
14933;SDS011;7560;51.364;12.384;2023-03-07T19:49:15;16.35;;;9.68;;
14933;SDS011;7560;51.364;12.384;2023-03-07T19:54:17;16.38;;;8.93;;
14933;SDS011;7560;51.364;12.384;2023-03-07T19:59:20;17.58;;;10.15;;
14933;SDS011;7560;51.364;12.384;2023-03-07T20:04:22;15.27;;;9.65;;
14933;SDS011;7560;51.364;12.384;2023-03-07T20:09:24;13.98;;;8.98;;
14933;SDS011;7560;51.364;12.384;2023-03-07T20:14:25;15.30;;;8.57;;
14933;SDS011;7560;51.364;12.384;2023-03-07T20:19:27;13.43;;;7.80;;
14933;SDS011;7560;51.364;12.384;2023-03-07T20:24:30;13.05;;;7.82;;
14933;SDS011;7560;51.364;12.384;2023-03-07T20:29:33;10.60;;;6.50;;
14933;SDS011;7560;51.364;12.384;2023-03-07T20:34:35;12.18;;;6.93;;
14933;SDS011;7560;51.364;12.384;2023-03-07T20:39:37;10.73;;;6.65;;
14933;SDS011;7560;51.364;12.384;2023-03-07T20:44:39;10.45;;;6.38;;
14933;SDS011;7560;51.364;12.384;2023-03-07T20:49:41;9.27;;;5.82;;
14933;SDS011;7560;51.364;12.384;2023-03-07T20:54:42;7.13;;;4.93;;
14933;SDS011;7560;51.364;12.384;2023-03-07T20:59:44;6.55;;;4.80;;
14933;SDS011;7560;51.364;12.384;2023-03-07T21:04:46;3.72;;;2.67;;
14933;SDS011;7560;51.364;12.384;2023-03-07T21:09:50;5.40;;;3.40;;
14933;SDS011;7560;51.364;12.384;2023-03-07T21:14:52;4.90;;;3.42;;
14933;SDS011;7560;51.364;12.384;2023-03-07T21:19:55;2.67;;;2.10;;
14933;SDS011;7560;51.364;12.384;2023-03-07T21:24:58;4.90;;;2.97;;
14933;SDS011;7560;51.364;12.384;2023-03-07T21:29:59;4.65;;;2.58;;
14933;SDS011;7560;51.364;12.384;2023-03-07T21:35:01;3.15;;;2.17;;
14933;SDS011;7560;51.364;12.384;2023-03-07T21:40:04;4.25;;;1.90;;
14933;SDS011;7560;51.364;12.384;2023-03-07T21:45:06;1.70;;;1.13;;
14933;SDS011;7560;51.364;12.384;2023-03-07T21:50:12;2.47;;;0.98;;
14933;SDS011;7560;51.364;12.384;2023-03-07T21:55:14;2.88;;;1.23;;
14933;SDS011;7560;51.364;12.384;2023-03-07T22:00:17;2.40;;;1.40;;
14933;SDS011;7560;51.364;12.384;2023-03-07T22:05:19;3.22;;;2.00;;
14933;SDS011;7560;51.364;12.384;2023-03-07T22:10:23;4.88;;;2.35;;
14933;SDS011;7560;51.364;12.384;2023-03-07T22:15:25;4.95;;;3.10;;
14933;SDS011;7560;51.364;12.384;2023-03-07T22:20:27;4.82;;;3.42;;
14933;SDS011;7560;51.364;12.384;2023-03-07T22:25:28;5.28;;;3.58;;
14933;SDS011;7560;51.364;12.384;2023-03-07T22:30:30;5.82;;;3.88;;
14933;SDS011;7560;51.364;12.384;2023-03-07T22:35:32;4.65;;;3.63;;
14933;SDS011;7560;51.364;12.384;2023-03-07T22:40:36;6.13;;;3.55;;
14933;SDS011;7560;51.364;12.384;2023-03-07T22:45:39;4.22;;;3.20;;
14933;SDS011;7560;51.364;12.384;2023-03-07T22:50:41;5.32;;;3.13;;
14933;SDS011;7560;51.364;12.384;2023-03-07T22:55:44;5.15;;;2.90;;
14933;SDS011;7560;51.364;12.384;2023-03-07T23:00:46;4.10;;;3.10;;
14933;SDS011;7560;51.364;12.384;2023-03-07T23:05:47;4.00;;;2.80;;
14933;SDS011;7560;51.364;12.384;2023-03-07T23:10:49;4.95;;;3.25;;
14933;SDS011;7560;51.364;12.384;2023-03-07T23:15:51;3.33;;;2.92;;
14933;SDS011;7560;51.364;12.384;2023-03-07T23:20:53;5.20;;;3.22;;
14933;SDS011;7560;51.364;12.384;2023-03-07T23:25:55;5.63;;;3.63;;
14933;SDS011;7560;51.364;12.384;2023-03-07T23:30:56;17.50;;;7.78;;
14933;SDS011;7560;51.364;12.384;2023-03-07T23:35:58;5.75;;;3.42;;
14933;SDS011;7560;51.364;12.384;2023-03-07T23:41:00;5.45;;;3.38;;
14933;SDS011;7560;51.364;12.384;2023-03-07T23:46:02;4.22;;;2.78;;
14933;SDS011;7560;51.364;12.384;2023-03-07T23:51:04;6.90;;;3.28;;
14933;SDS011;7560;51.364;12.384;2023-03-07T23:56:07;4.55;;;2.92;;
